CNV4 weather

Hawkesbury Airport
Hawkesbury, Ontario, Canada

Public forecast

Using degrees Celsius for public forecast. Weather courtesy of forecast.io.

Closest aviation weather report (METAR) to Hawkesbury Airport

Closest report is Montreal International (Mirabel) Airport, 25.9 nm (48.0 km) E. Retrieved 2020/05/29 06:00 UTC (1 hour ago):

CYMX 290600Z 22011G23KT 25SM FEW039 21/19 A2981 RMK SC2 SLP094 DENSITY ALT 1300FT

Closest aviation forecast (TAF) to Hawkesbury Airport

Closest forecast is Montreal International (Mirabel) Airport, 25.9 nm (48.0 km) E. Retrieved 2020/05/29 06:42 UTC (26 minutes ago):

TAF CYMX 290538Z 2906/3006 21008KT P6SM BKN025 TEMPO 2906/2915 BKN020 FM291500 23015G25KT P6SM BKN040 BECMG 2916/2918 23012G22KT FM292100 21012G22KT P6SM -SHRA OVC060 FM300300 23012KT 4SM -RA BR OVC015 FM300500 23012KT 3SM -RA BR OVC008 RMK NXT FCST BY 291200Z